This is the latest recevied weather packets stored in our database for station/object IZ3TCG-13. If no packets are shown the sender has not sent any weather packets the latest 10 day(s).
| Time | Temp. | Humidity | Pressure | Rain* | Wind** | Luminosity | Snow |
|---|---|---|---|---|---|---|---|
| 1777842724 | 15° C | 84% | 1011.4 hPa | 0 mm | - | - | - |
| 1777841417 | 15.56° C | 82% | 1011.2 hPa | 0 mm | - | - | - |
| 1777840564 | 15.56° C | 81% | 1010.9 hPa | 0 mm | - | - | - |
| 1777840324 | 15.56° C | 82% | 1010.9 hPa | 0 mm | - | - | - |
| 1777839364 | 15.56° C | 82% | 1011.2 hPa | 0 mm | - | - | - |
| 1777839256 | 15.56° C | 82% | 1011.2 hPa | 0 mm | - | - | - |
| 1777837204 | 16.67° C | 80% | 1011.1 hPa | 0 mm | - | - | - |
| 1777835285 | 17.78° C | 76% | 1011.1 hPa | 0 mm | - | - | - |
| 1777834324 | 18.33° C | 75% | 1010.7 hPa | 0 mm | - | - | - |
| 1777832644 | 18.89° C | 71% | 1010.6 hPa | 0 mm | - | - | - |
| 1777830963 | 20° C | 66% | 1010.6 hPa | 0 mm | - | - | - |
| 1777827604 | 22.22° C | 55% | 1010.3 hPa | 0 mm | - | - | - |
| 1777826163 | 22.78° C | 51% | 1010.6 hPa | 0 mm | - | - | - |
| 1777825684 | 23.33° C | 52% | 1010.7 hPa | 0 mm | - | - | - |
| 1777825444 | 23.33° C | 51% | 1010.7 hPa | 0 mm | - | - | - |
| 1777821254 | 23.89° C | 51% | 1011.1 hPa | 0 mm | - | - | - |
| 1777819924 | 23.89° C | 48% | 1011.3 hPa | 0 mm | - | - | - |
| 1777819684 | 24.44° C | 50% | 1011.2 hPa | 0 mm | - | - | - |
| 1777819204 | 24.44° C | 50% | 1011.2 hPa | 0 mm | - | - | - |
| 1777818483 | 24.44° C | 48% | 1011.4 hPa | 0 mm | - | - | - |
| 1777818004 | 24.44° C | 48% | 1011.3 hPa | 0 mm | - | - | - |
| 1777814883 | 25.56° C | 45% | 1011.6 hPa | 0 mm | - | - | - |
| 1777812964 | 25.56° C | 45% | 1012 hPa | 0 mm | - | - | - |
| 1777811044 | 27.22° C | 31% | 1012.1 hPa | 0 mm | - | - | - |
| 1777810084 | 26.67° C | 31% | 1012.3 hPa | 0 mm | - | - | - |
* Rain latest hour (hover to see other rain measurements)
** Current wind speed in m/s (hover to see current wind gust speed)